createdAt,value
2022-10-08T00:01:31.485Z,7.28
2022-10-08T00:03:59.500Z,7.28
2022-10-08T00:06:33.693Z,7.00
2022-10-08T00:09:07.418Z,6.97
2022-10-08T00:11:39.844Z,7.60
2022-10-08T00:14:09.831Z,6.93
2022-10-08T00:16:40.196Z,7.63
2022-10-08T00:19:16.531Z,6.63
2022-10-08T00:21:45.876Z,7.85
2022-10-08T00:24:20.133Z,7.30
2022-10-08T00:26:48.032Z,7.65
2022-10-08T00:29:19.308Z,7.18
2022-10-08T00:31:49.319Z,6.97
2022-10-08T00:34:20.235Z,7.10
2022-10-08T00:36:53.188Z,6.82
2022-10-08T00:39:23.332Z,6.40
2022-10-08T00:41:53.710Z,6.97
2022-10-08T00:44:54.922Z,7.47
2022-10-08T00:47:33.427Z,6.97
2022-10-08T00:50:08.919Z,6.80
2022-10-08T00:55:14.891Z,6.43
2022-10-08T00:57:48.163Z,6.85
2022-10-08T01:00:20.321Z,7.05
2022-10-08T01:02:49.062Z,6.63
2022-10-08T01:05:23.848Z,6.68
2022-10-08T01:08:03.881Z,6.90
2022-10-08T01:10:59.456Z,7.00
2022-10-08T01:14:12.656Z,6.83
2022-10-08T01:17:10.685Z,6.72
2022-10-08T01:20:01.529Z,6.70
2022-10-08T01:22:53.918Z,6.72
2022-10-08T01:25:39.907Z,7.15
2022-10-08T01:30:39.952Z,7.10
2022-10-08T01:33:17.976Z,6.90
2022-10-08T01:35:54.249Z,7.15
2022-10-08T01:38:25.320Z,6.50
2022-10-08T01:41:00.555Z,6.47
2022-10-08T01:43:35.652Z,6.65
2022-10-08T01:46:12.358Z,6.82
2022-10-08T01:48:45.418Z,7.32
2022-10-08T01:51:19.928Z,6.97
2022-10-08T01:53:56.182Z,6.57
2022-10-08T01:56:28.325Z,7.30
2022-10-08T01:59:07.278Z,7.60
2022-10-08T02:01:49.996Z,6.90
2022-10-08T02:04:35.319Z,6.82
2022-10-08T02:07:11.892Z,6.85
2022-10-08T02:09:48.516Z,7.15
2022-10-08T02:12:16.639Z,7.05
2022-10-08T02:14:49.105Z,6.38
2022-10-08T02:17:50.567Z,6.57
2022-10-08T02:20:37.840Z,6.75
2022-10-08T02:24:09.879Z,6.88
2022-10-08T02:26:46.767Z,6.22
2022-10-08T02:29:29.149Z,6.22
2022-10-08T02:32:02.820Z,6.85
2022-10-08T02:34:35.303Z,6.22
2022-10-08T02:37:43.106Z,6.25
2022-10-08T02:40:15.304Z,7.05
2022-10-08T02:42:52.561Z,6.25
2022-10-08T02:45:33.526Z,6.43
2022-10-08T02:48:18.585Z,6.53
2022-10-08T02:50:51.576Z,6.80
2022-10-08T02:53:21.079Z,7.00
2022-10-08T02:56:04.980Z,7.28
2022-10-08T02:58:33.384Z,6.57
2022-10-08T03:01:10.172Z,6.38
2022-10-08T03:03:44.772Z,7.15
2022-10-08T03:06:16.236Z,7.00
2022-10-08T03:08:49.398Z,7.47
2022-10-08T03:13:57.614Z,7.47
2022-10-08T03:16:32.102Z,7.28
2022-10-08T03:19:03.511Z,7.78
2022-10-08T03:21:33.017Z,7.35
2022-10-08T03:24:27.283Z,7.43
2022-10-08T03:26:55.287Z,7.40
2022-10-08T03:29:24.278Z,7.45
2022-10-08T03:31:52.080Z,7.35
2022-10-08T03:34:24.545Z,6.70
2022-10-08T03:36:55.339Z,7.93
2022-10-08T03:39:23.152Z,7.20
2022-10-08T03:41:51.126Z,7.35
2022-10-08T03:44:19.051Z,7.03
2022-10-08T03:46:46.750Z,7.18
2022-10-08T03:49:14.820Z,6.88
2022-10-08T03:51:44.806Z,7.50
2022-10-08T03:54:12.614Z,8.50
2022-10-08T03:56:43.999Z,8.35
2022-10-08T03:59:12.026Z,7.32
2022-10-08T04:01:39.903Z,7.40
2022-10-08T04:04:08.945Z,7.57
2022-10-08T04:06:36.840Z,7.20
2022-10-08T04:09:04.708Z,7.38
2022-10-08T04:11:32.546Z,7.68
2022-10-08T04:14:01.506Z,7.93
2022-10-08T04:16:29.492Z,7.68
2022-10-08T04:19:01.874Z,6.95
2022-10-08T04:21:30.800Z,7.50
2022-10-08T04:23:59.634Z,7.55
2022-10-08T04:26:27.547Z,9.60
2022-10-08T04:28:55.601Z,10.52
2022-10-08T04:31:24.189Z,8.98
2022-10-08T04:33:52.442Z,9.65
2022-10-08T04:36:23.212Z,8.05
2022-10-08T04:38:54.371Z,7.53
2022-10-08T04:41:24.836Z,7.00
2022-10-08T04:43:54.202Z,8.05
2022-10-08T04:46:26.079Z,7.60
2022-10-08T04:49:21.695Z,8.57
2022-10-08T04:52:12.613Z,7.90
2022-10-08T04:57:19.603Z,7.80
2022-10-08T05:00:18.327Z,8.23
2022-10-08T05:02:52.246Z,8.25
2022-10-08T05:05:28.568Z,8.13
2022-10-08T05:08:27.734Z,8.45
2022-10-08T05:13:41.877Z,8.07
2022-10-08T05:16:11.970Z,7.82
2022-10-08T05:18:41.288Z,7.68
2022-10-08T05:21:13.625Z,8.02
2022-10-08T05:23:42.963Z,7.78
2022-10-08T05:26:18.751Z,7.88
2022-10-08T05:28:48.096Z,8.68
2022-10-08T05:31:16.553Z,7.60
2022-10-08T05:33:44.646Z,7.78
2022-10-08T05:36:32.832Z,8.57
2022-10-08T05:39:01.988Z,8.82
2022-10-08T05:41:36.924Z,8.50
2022-10-08T05:44:05.949Z,8.40
2022-10-08T05:46:36.193Z,8.50
2022-10-08T05:49:06.129Z,8.43
2022-10-08T05:51:34.703Z,8.60
2022-10-08T05:54:02.258Z,9.50
2022-10-08T05:56:31.647Z,9.38
2022-10-08T05:58:59.422Z,9.30
2022-10-08T06:01:29.531Z,8.55
2022-10-08T06:04:08.156Z,9.73
2022-10-08T06:06:37.994Z,10.02
2022-10-08T06:09:06.269Z,9.25
2022-10-08T06:11:36.094Z,10.10
2022-10-08T06:14:06.194Z,10.38
2022-10-08T06:16:35.138Z,10.13
2022-10-08T06:19:03.893Z,10.05
2022-10-08T06:21:32.077Z,10.10
2022-10-08T06:24:11.788Z,9.65
2022-10-08T06:26:41.812Z,9.75
2022-10-08T06:29:17.395Z,9.30
2022-10-08T06:34:12.813Z,9.35
2022-10-08T06:36:40.720Z,8.60
2022-10-08T06:39:11.715Z,8.98
2022-10-08T06:41:39.320Z,10.15
2022-10-08T06:44:10.217Z,9.43
2022-10-08T06:46:37.842Z,9.15
2022-10-08T06:49:06.411Z,9.30
2022-10-08T06:51:34.513Z,9.88
2022-10-08T06:54:07.486Z,9.25
2022-10-08T06:56:37.956Z,9.55
2022-10-08T06:59:06.348Z,9.88
2022-10-08T07:01:35.531Z,9.40
2022-10-08T07:04:05.236Z,9.57
2022-10-08T07:06:33.213Z,9.15
2022-10-08T07:09:02.199Z,9.05
2022-10-08T07:11:32.162Z,9.75
2022-10-08T07:14:00.551Z,8.95
2022-10-08T07:16:28.785Z,9.35
2022-10-08T07:18:58.761Z,8.57
2022-10-08T07:21:27.874Z,8.25
2022-10-08T07:23:55.453Z,7.43
2022-10-08T07:26:25.931Z,7.43
2022-10-08T07:28:59.293Z,7.10
2022-10-08T07:31:30.278Z,6.60
2022-10-08T07:33:59.257Z,6.45
2022-10-08T07:36:38.940Z,6.07
2022-10-08T07:39:11.926Z,6.00
2022-10-08T07:41:40.086Z,5.70
2022-10-08T07:44:08.563Z,5.70
2022-10-08T07:46:38.098Z,5.60
2022-10-08T07:49:05.837Z,5.90
2022-10-08T07:51:34.420Z,6.05
2022-10-08T07:54:27.187Z,6.18
2022-10-08T08:00:25.231Z,6.50
2022-10-08T08:02:58.550Z,6.05
2022-10-08T08:05:38.501Z,5.78
2022-10-08T08:08:59.345Z,5.88
2022-10-08T08:15:06.662Z,5.45
2022-10-08T08:18:21.348Z,5.63
2022-10-08T08:28:18.760Z,5.20
2022-10-08T08:30:46.449Z,5.22
2022-10-08T08:33:32.331Z,5.32
2022-10-08T08:35:59.709Z,5.28
2022-10-08T08:38:26.999Z,5.40
2022-10-08T08:40:57.384Z,4.68
2022-10-08T08:43:25.303Z,4.60
2022-10-08T08:45:52.799Z,5.15
2022-10-08T08:48:26.722Z,5.00
2022-10-08T08:50:58.768Z,5.60
2022-10-08T08:53:27.611Z,5.85
2022-10-08T08:55:58.722Z,5.43
2022-10-08T08:58:41.477Z,6.13
2022-10-08T09:01:08.891Z,6.20
2022-10-08T09:03:43.395Z,6.35
2022-10-08T09:06:14.645Z,6.70
2022-10-08T09:08:53.557Z,5.88
2022-10-08T09:11:22.429Z,5.30
2022-10-08T09:14:05.922Z,5.13
2022-10-08T09:16:35.614Z,5.70
2022-10-08T09:19:03.013Z,5.50
2022-10-08T09:21:34.712Z,5.30
2022-10-08T09:24:02.131Z,5.80
2022-10-08T09:26:36.263Z,5.57
2022-10-08T09:29:05.053Z,6.10
2022-10-08T09:31:38.188Z,5.32
2022-10-08T09:34:13.130Z,5.55
2022-10-08T09:36:43.481Z,5.88
2022-10-08T09:39:20.983Z,5.75
2022-10-08T09:42:04.613Z,5.80
2022-10-08T09:45:03.728Z,5.97
2022-10-08T09:47:31.400Z,6.22
2022-10-08T09:50:05.815Z,6.47
2022-10-08T09:55:08.223Z,6.13
2022-10-08T09:57:44.857Z,6.20
2022-10-08T10:00:24.482Z,7.32
2022-10-08T10:02:56.306Z,7.22
2022-10-08T10:05:28.737Z,7.90
2022-10-08T10:07:56.059Z,7.80
2022-10-08T10:10:35.810Z,7.90
2022-10-08T10:13:14.069Z,8.40
2022-10-08T10:15:46.917Z,8.10
2022-10-08T10:18:28.350Z,7.72
2022-10-08T10:21:11.543Z,8.63
2022-10-08T10:23:46.346Z,9.27
2022-10-08T10:26:21.868Z,9.45
2022-10-08T10:29:02.984Z,8.77
2022-10-08T10:31:52.613Z,9.98
2022-10-08T10:34:27.444Z,9.60
2022-10-08T10:36:59.059Z,10.88
2022-10-08T10:39:42.079Z,11.27
2022-10-08T10:42:19.121Z,10.50
2022-10-08T10:44:53.705Z,9.75
2022-10-08T10:47:27.093Z,10.52
2022-10-08T10:49:58.409Z,10.27
2022-10-08T10:52:43.751Z,11.23
2022-10-08T10:58:15.180Z,11.57
2022-10-08T11:01:03.722Z,11.43
2022-10-08T11:03:53.307Z,11.75
2022-10-08T11:06:39.193Z,11.88
2022-10-08T11:09:16.095Z,11.00
2022-10-08T11:11:58.188Z,12.32
2022-10-08T11:15:12.782Z,12.30
2022-10-08T11:17:45.693Z,12.30
2022-10-08T11:20:18.720Z,12.57
2022-10-08T11:22:57.915Z,12.23
2022-10-08T11:26:16.414Z,12.45
2022-10-08T11:29:09.619Z,12.90
2022-10-08T11:31:51.441Z,14.63
2022-10-08T11:34:37.347Z,13.73
2022-10-08T11:37:16.263Z,13.55
2022-10-08T11:39:49.891Z,13.45
2022-10-08T11:42:48.167Z,11.88
2022-10-08T11:45:25.811Z,12.90
2022-10-08T11:47:58.412Z,11.57
2022-10-08T11:50:36.172Z,12.27
2022-10-08T11:53:15.498Z,12.93
2022-10-08T11:55:53.439Z,12.65
2022-10-08T11:58:30.654Z,12.15
2022-10-08T12:01:09.961Z,12.90
2022-10-08T12:03:40.810Z,11.38
2022-10-08T12:06:28.738Z,11.25
2022-10-08T12:08:57.342Z,11.52
2022-10-08T12:11:37.462Z,11.18
2022-10-08T12:14:17.120Z,11.63
2022-10-08T12:16:47.422Z,11.93
2022-10-08T12:19:35.813Z,12.05
2022-10-08T12:22:15.321Z,12.43
2022-10-08T12:24:50.239Z,11.95
2022-10-08T12:27:18.033Z,11.98
2022-10-08T12:30:13.903Z,11.55
2022-10-08T12:35:41.623Z,11.70
2022-10-08T12:38:31.194Z,12.27
2022-10-08T12:41:23.398Z,10.70
2022-10-08T12:44:19.649Z,10.80
2022-10-08T12:47:16.517Z,10.30
2022-10-08T12:49:52.282Z,9.95
2022-10-08T12:52:21.100Z,9.50
2022-10-08T12:55:09.874Z,9.27
2022-10-08T12:57:40.612Z,10.25
2022-10-08T13:00:20.930Z,9.50
2022-10-08T13:03:06.157Z,9.23
2022-10-08T13:05:37.607Z,8.95
2022-10-08T13:08:19.100Z,8.27
2022-10-08T13:10:47.077Z,9.27
2022-10-08T13:13:38.228Z,8.70
2022-10-08T13:16:08.111Z,9.27
2022-10-08T13:18:37.122Z,9.00
2022-10-08T13:21:10.319Z,9.65
2022-10-08T13:23:40.390Z,11.07
2022-10-08T13:26:45.015Z,10.20
2022-10-08T13:29:18.395Z,10.50
2022-10-08T13:32:11.974Z,10.82
2022-10-08T13:35:00.758Z,10.50
2022-10-08T13:37:45.324Z,9.98
2022-10-08T13:40:13.202Z,10.57
2022-10-08T13:42:44.701Z,9.63
2022-10-08T13:45:17.289Z,9.70
2022-10-08T13:47:48.399Z,10.23
2022-10-08T13:50:21.374Z,9.75
2022-10-08T13:52:54.782Z,9.57
2022-10-08T13:55:31.436Z,9.00
2022-10-08T13:58:02.272Z,9.80
2022-10-08T14:00:33.572Z,9.88
2022-10-08T14:03:01.782Z,8.85
2022-10-08T14:05:31.810Z,10.05
2022-10-08T14:08:05.654Z,9.35
2022-10-08T14:10:33.428Z,9.45
2022-10-08T14:13:00.923Z,8.80
2022-10-08T14:15:28.484Z,8.57
2022-10-08T14:17:56.014Z,8.95
2022-10-08T14:20:23.671Z,8.32
2022-10-08T14:22:51.355Z,8.68
2022-10-08T14:25:31.221Z,7.95
2022-10-08T14:28:00.967Z,8.55
2022-10-08T14:30:28.762Z,8.57
2022-10-08T14:32:56.526Z,8.25
2022-10-08T14:35:24.135Z,9.02
2022-10-08T14:37:51.690Z,8.90
2022-10-08T14:40:22.521Z,9.10
2022-10-08T14:42:50.712Z,8.85
2022-10-08T14:45:18.602Z,9.18
2022-10-08T14:47:46.359Z,8.75
2022-10-08T14:50:14.091Z,8.80
2022-10-08T14:52:44.465Z,9.52
2022-10-08T14:55:14.235Z,9.15
2022-10-08T14:57:41.748Z,8.32
2022-10-08T15:00:13.930Z,8.48
2022-10-08T15:02:42.903Z,8.25
2022-10-08T15:05:10.375Z,9.55
2022-10-08T15:07:37.901Z,8.32
2022-10-08T15:10:05.721Z,9.27
2022-10-08T15:12:33.145Z,9.07
2022-10-08T15:15:00.563Z,9.05
2022-10-08T15:17:27.960Z,9.45
2022-10-08T15:19:56.489Z,9.10
2022-10-08T15:22:30.876Z,7.90
2022-10-08T15:24:58.458Z,7.35
2022-10-08T15:27:31.767Z,8.40
2022-10-08T15:29:59.120Z,8.50
2022-10-08T15:32:30.376Z,8.55
2022-10-08T15:34:58.292Z,7.90
2022-10-08T15:37:25.694Z,7.43
2022-10-08T15:39:53.026Z,8.80
2022-10-08T15:42:20.347Z,8.63
2022-10-08T15:44:47.886Z,8.00
2022-10-08T15:47:16.528Z,8.07
2022-10-08T15:49:45.903Z,7.70
2022-10-08T15:52:19.550Z,8.45
2022-10-08T15:54:47.533Z,8.43
2022-10-08T15:57:19.747Z,9.07
2022-10-08T15:59:47.207Z,9.32
2022-10-08T16:02:17.354Z,8.90
2022-10-08T16:04:47.272Z,7.80
2022-10-08T16:07:15.121Z,8.23
2022-10-08T16:09:42.625Z,8.25
2022-10-08T16:12:10.314Z,7.47
2022-10-08T16:14:37.773Z,7.78
2022-10-08T16:17:05.357Z,7.85
2022-10-08T16:19:32.898Z,7.75
2022-10-08T16:22:01.387Z,8.05
2022-10-08T16:24:29.022Z,7.75
2022-10-08T16:26:56.505Z,8.10
2022-10-08T16:29:24.090Z,8.20
2022-10-08T16:31:51.630Z,7.70
2022-10-08T16:34:22.703Z,7.72
2022-10-08T16:36:51.407Z,7.63
2022-10-08T16:39:21.376Z,7.72
2022-10-08T16:41:51.850Z,8.02
2022-10-08T16:44:20.985Z,7.63
2022-10-08T16:46:51.472Z,6.85
2022-10-08T16:49:24.578Z,7.60
2022-10-08T16:52:01.555Z,7.90
2022-10-08T16:54:29.423Z,8.18
2022-10-08T16:56:57.826Z,8.77
2022-10-08T16:59:27.347Z,8.63
2022-10-08T17:01:56.936Z,8.80
2022-10-08T17:04:26.155Z,10.13
2022-10-08T17:06:56.599Z,10.70
2022-10-08T17:09:24.233Z,10.98
2022-10-08T17:11:52.283Z,11.57
2022-10-08T17:14:19.810Z,12.57
2022-10-08T17:16:49.598Z,12.40
2022-10-08T17:19:17.531Z,13.82
2022-10-08T17:21:45.573Z,12.85
2022-10-08T17:24:13.388Z,12.68
2022-10-08T17:26:42.015Z,13.10
2022-10-08T17:29:11.207Z,14.50
2022-10-08T17:31:39.623Z,14.52
2022-10-08T17:34:07.769Z,13.88
2022-10-08T17:36:37.938Z,14.30
2022-10-08T17:39:08.561Z,14.20
2022-10-08T17:41:38.109Z,17.40
2022-10-08T17:44:15.576Z,21.20
2022-10-08T17:46:46.250Z,19.55
2022-10-08T17:49:17.475Z,19.20
2022-10-08T17:52:03.637Z,21.38
2022-10-08T17:54:31.214Z,22.40
2022-10-08T17:57:00.014Z,20.30
2022-10-08T17:59:28.647Z,20.40
2022-10-08T18:01:56.566Z,22.60
2022-10-08T18:04:24.146Z,22.23
2022-10-08T18:06:51.644Z,23.75
2022-10-08T18:09:20.954Z,20.98
2022-10-08T18:11:52.120Z,20.13
2022-10-08T18:14:22.527Z,16.17
2022-10-08T18:16:51.551Z,18.02
2022-10-08T18:19:19.349Z,17.27
2022-10-08T18:21:47.173Z,14.70
2022-10-08T18:24:18.539Z,14.50
2022-10-08T18:26:46.848Z,13.80
2022-10-08T18:29:16.314Z,12.60
2022-10-08T18:31:44.777Z,14.02
2022-10-08T18:34:15.407Z,12.98
2022-10-08T18:36:43.545Z,12.70
2022-10-08T18:39:13.557Z,12.13
2022-10-08T18:44:27.223Z,12.30
